DLH078 EDDF-EDDL
Flight info
| Callsign | DLH078 |
|---|---|
| Flight time | 0h 50m |
| Altitude | 24000 |
| Route | MARUN3W/25C MARUN Y152 ARPEG Z850 ADEMI T854 DOMUX DOMUX1A |
| Aircraft | A319/M-SDE2E3FGIJ1LORWXYZ/HB1 |
Departure
| Time | 2026-05-04 19:04 |
|---|---|
| Airport | Frankfurt Main Airport (EDDF) |
Arrival
| Time | 2026-05-04 19:55 |
|---|---|
| Airport | Düsseldorf Airport (EDDL) |
| Time | Latitude | Longitude | Altitude | Speed | Heading |
|---|---|---|---|---|---|
| 2026-05-04 18:26 | 50.02796 | 8.57664 | 353 ft | 0 kts | 160° |
| 2026-05-04 18:46 | 50.02818 | 8.57651 | 361 ft | 4 kts | 160° |
| 2026-05-04 18:46 | 50.02843 | 8.57636 | 360 ft | 4 kts | 160° |
| 2026-05-04 18:47 | 50.02864 | 8.57626 | 358 ft | 4 kts | 185° |
| 2026-05-04 18:47 | 50.02881 | 8.57642 | 363 ft | 4 kts | 256° |
| 2026-05-04 18:47 | 50.02883 | 8.57677 | 361 ft | 2 kts | 272° |
| 2026-05-04 18:47 | 50.02884 | 8.57651 | 363 ft | 4 kts | 272° |
| 2026-05-04 18:48 | 50.02885 | 8.57612 | 359 ft | 2 kts | 272° |
| 2026-05-04 18:48 | 50.02885 | 8.57610 | 358 ft | 0 kts | 272° |
| 2026-05-04 18:51 | 50.02885 | 8.57605 | 358 ft | 1 kts | 272° |
| 2026-05-04 18:51 | 50.02886 | 8.57584 | 356 ft | 3 kts | 275° |
| 2026-05-04 18:51 | 50.02892 | 8.57547 | 357 ft | 5 kts | 290° |
| 2026-05-04 18:51 | 50.02908 | 8.57493 | 359 ft | 6 kts | 295° |
| 2026-05-04 18:52 | 50.02928 | 8.57425 | 355 ft | 7 kts | 295° |
| 2026-05-04 18:52 | 50.02951 | 8.57348 | 355 ft | 9 kts | 295° |
| 2026-05-04 18:52 | 50.02978 | 8.57257 | 356 ft | 10 kts | 295° |
| 2026-05-04 18:52 | 50.03009 | 8.57155 | 360 ft | 11 kts | 295° |
| 2026-05-04 18:53 | 50.03041 | 8.57045 | 355 ft | 11 kts | 295° |
| 2026-05-04 18:53 | 50.03057 | 8.56991 | 354 ft | 0 kts | 295° |
| 2026-05-04 18:53 | 50.03065 | 8.56968 | 353 ft | 4 kts | 300° |
| 2026-05-04 18:53 | 50.03100 | 8.56931 | 355 ft | 7 kts | 339° |
| 2026-05-04 18:54 | 50.03149 | 8.56903 | 359 ft | 7 kts | 341° |
| 2026-05-04 18:54 | 50.03198 | 8.56877 | 354 ft | 6 kts | 340° |
| 2026-05-04 18:54 | 50.03206 | 8.56872 | 357 ft | 0 kts | 340° |
| 2026-05-04 18:56 | 50.03209 | 8.56871 | 356 ft | 2 kts | 340° |
| 2026-05-04 18:56 | 50.03245 | 8.56850 | 355 ft | 8 kts | 340° |
| 2026-05-04 18:56 | 50.03299 | 8.56897 | 356 ft | 12 kts | 63° |
| 2026-05-04 18:57 | 50.03331 | 8.57020 | 357 ft | 13 kts | 70° |
| 2026-05-04 18:57 | 50.03366 | 8.57168 | 355 ft | 16 kts | 70° |
| 2026-05-04 18:57 | 50.03405 | 8.57333 | 355 ft | 16 kts | 70° |
| 2026-05-04 18:57 | 50.03444 | 8.57500 | 357 ft | 17 kts | 70° |
| 2026-05-04 18:58 | 50.03485 | 8.57668 | 359 ft | 17 kts | 69° |
| 2026-05-04 18:58 | 50.03525 | 8.57838 | 362 ft | 16 kts | 69° |
| 2026-05-04 18:58 | 50.03564 | 8.57998 | 365 ft | 15 kts | 69° |
| 2026-05-04 18:58 | 50.03631 | 8.58090 | 360 ft | 14 kts | 348° |
| 2026-05-04 18:59 | 50.03716 | 8.58042 | 365 ft | 13 kts | 340° |
| 2026-05-04 18:59 | 50.03814 | 8.57986 | 366 ft | 17 kts | 340° |
| 2026-05-04 18:59 | 50.03925 | 8.57923 | 370 ft | 17 kts | 340° |
| 2026-05-04 18:59 | 50.04030 | 8.57863 | 368 ft | 16 kts | 340° |
| 2026-05-04 19:00 | 50.04123 | 8.57808 | 366 ft | 10 kts | 339° |
| 2026-05-04 19:00 | 50.04180 | 8.57775 | 364 ft | 0 kts | 340° |
| 2026-05-04 19:02 | 50.04202 | 8.57763 | 365 ft | 11 kts | 340° |
| 2026-05-04 19:02 | 50.04271 | 8.57714 | 362 ft | 8 kts | 314° |
| 2026-05-04 19:03 | 50.04270 | 8.57677 | 362 ft | 0 kts | 248° |
| 2026-05-04 19:03 | 50.04261 | 8.57645 | 365 ft | 20 kts | 249° |
| 2026-05-04 19:04 | 50.04109 | 8.57008 | 366 ft | 102 kts | 249° |
| 2026-05-04 19:04 | 50.03783 | 8.55637 | 358 ft | 164 kts | 249° |
| 2026-05-04 19:04 | 50.03366 | 8.53935 | 953 ft | 169 kts | 251° |
| 2026-05-04 19:04 | 50.02960 | 8.52231 | 1718 ft | 171 kts | 252° |
| 2026-05-04 19:05 | 50.02665 | 8.51019 | 2044 ft | 185 kts | 249° |
| 2026-05-04 19:05 | 50.01503 | 8.48835 | 2681 ft | 213 kts | 213° |
| 2026-05-04 19:05 | 50.00600 | 8.48180 | 3300 ft | 212 kts | 197° |
| 2026-05-04 19:05 | 49.99172 | 8.47785 | 4288 ft | 211 kts | 188° |
| 2026-05-04 19:06 | 49.97722 | 8.47459 | 5260 ft | 210 kts | 188° |
| 2026-05-04 19:06 | 49.96278 | 8.47129 | 6240 ft | 209 kts | 191° |
| 2026-05-04 19:06 | 49.94830 | 8.46514 | 6872 ft | 227 kts | 197° |
| 2026-05-04 19:06 | 49.93260 | 8.45789 | 7542 ft | 240 kts | 197° |
| 2026-05-04 19:07 | 49.91775 | 8.44579 | 8463 ft | 246 kts | 221° |
| 2026-05-04 19:07 | 49.90816 | 8.42373 | 9456 ft | 252 kts | 249° |
| 2026-05-04 19:07 | 49.90658 | 8.39648 | 10392 ft | 261 kts | 277° |
| 2026-05-04 19:07 | 49.91409 | 8.37047 | 11277 ft | 273 kts | 307° |
| 2026-05-04 19:08 | 49.92975 | 8.35309 | 12134 ft | 285 kts | 333° |
| 2026-05-04 19:08 | 49.94869 | 8.34051 | 12612 ft | 307 kts | 334° |
| 2026-05-04 19:08 | 49.96911 | 8.32736 | 12901 ft | 332 kts | 335° |
| 2026-05-04 19:08 | 49.99096 | 8.31344 | 13468 ft | 344 kts | 335° |
| 2026-05-04 19:09 | 50.01337 | 8.29943 | 14211 ft | 350 kts | 338° |
| 2026-05-04 19:09 | 50.03735 | 8.29069 | 14941 ft | 359 kts | 351° |
| 2026-05-04 19:09 | 50.06274 | 8.29020 | 15681 ft | 366 kts | 4° |
| 2026-05-04 19:09 | 50.08768 | 8.29829 | 16407 ft | 373 kts | 17° |
| 2026-05-04 19:10 | 50.11243 | 8.31124 | 16825 ft | 377 kts | 18° |
| 2026-05-04 19:10 | 50.13727 | 8.32429 | 16944 ft | 377 kts | 18° |
| 2026-05-04 19:10 | 50.16219 | 8.33739 | 17114 ft | 380 kts | 17° |
| 2026-05-04 19:10 | 50.18731 | 8.35059 | 17921 ft | 382 kts | 17° |
| 2026-05-04 19:11 | 50.21262 | 8.36391 | 18613 ft | 386 kts | 18° |
| 2026-05-04 19:11 | 50.23821 | 8.37736 | 19253 ft | 390 kts | 17° |
| 2026-05-04 19:11 | 50.26407 | 8.39093 | 19893 ft | 394 kts | 17° |
| 2026-05-04 19:11 | 50.29016 | 8.40462 | 20538 ft | 397 kts | 17° |
| 2026-05-04 19:12 | 50.31648 | 8.41858 | 21165 ft | 401 kts | 18° |
| 2026-05-04 19:12 | 50.36970 | 8.44756 | 21937 ft | 407 kts | 18° |
| 2026-05-04 19:12 | 50.39637 | 8.46229 | 21987 ft | 407 kts | 18° |
| 2026-05-04 19:13 | 50.42307 | 8.47699 | 22118 ft | 407 kts | 18° |
| 2026-05-04 19:13 | 50.44923 | 8.49138 | 23240 ft | 391 kts | 18° |
| 2026-05-04 19:13 | 50.47469 | 8.50535 | 23687 ft | 385 kts | 18° |
| 2026-05-04 19:13 | 50.50001 | 8.51850 | 23906 ft | 383 kts | 16° |
| 2026-05-04 19:14 | 50.52545 | 8.53080 | 23965 ft | 382 kts | 15° |
| 2026-05-04 19:14 | 50.55093 | 8.54271 | 23985 ft | 382 kts | 15° |
| 2026-05-04 19:14 | 50.57642 | 8.55454 | 23991 ft | 382 kts | 14° |
| 2026-05-04 19:14 | 50.60187 | 8.56641 | 23982 ft | 381 kts | 14° |
| 2026-05-04 19:15 | 50.62726 | 8.57840 | 23985 ft | 381 kts | 15° |
| 2026-05-04 19:15 | 50.65269 | 8.59054 | 23985 ft | 381 kts | 15° |
| 2026-05-04 19:15 | 50.67806 | 8.60274 | 23980 ft | 382 kts | 15° |
| 2026-05-04 19:15 | 50.70346 | 8.61499 | 23986 ft | 382 kts | 15° |
| 2026-05-04 19:16 | 50.72885 | 8.62722 | 23988 ft | 381 kts | 15° |
| 2026-05-04 19:16 | 50.75422 | 8.63942 | 23976 ft | 381 kts | 14° |
| 2026-05-04 19:16 | 50.78014 | 8.64691 | 23979 ft | 377 kts | 360° |
| 2026-05-04 19:16 | 50.80607 | 8.64411 | 23979 ft | 372 kts | 345° |
| 2026-05-04 19:17 | 50.83040 | 8.63159 | 23977 ft | 366 kts | 330° |
| 2026-05-04 19:17 | 50.85178 | 8.61060 | 23977 ft | 359 kts | 316° |
| 2026-05-04 19:17 | 50.86916 | 8.58277 | 23974 ft | 354 kts | 305° |
| 2026-05-04 19:17 | 50.88496 | 8.55294 | 23971 ft | 354 kts | 306° |
| 2026-05-04 19:18 | 50.90091 | 8.52312 | 23974 ft | 355 kts | 306° |
| 2026-05-04 19:18 | 50.91688 | 8.49330 | 23984 ft | 355 kts | 306° |
| 2026-05-04 19:18 | 50.93287 | 8.46345 | 23985 ft | 355 kts | 306° |
| 2026-05-04 19:18 | 50.94886 | 8.43357 | 23982 ft | 356 kts | 306° |
| 2026-05-04 19:19 | 50.96484 | 8.40358 | 23979 ft | 356 kts | 306° |
| 2026-05-04 19:19 | 50.98079 | 8.37359 | 23978 ft | 356 kts | 306° |
| 2026-05-04 19:19 | 50.99679 | 8.34353 | 23977 ft | 356 kts | 306° |
| 2026-05-04 19:19 | 51.01368 | 8.31466 | 23979 ft | 359 kts | 314° |
| 2026-05-04 19:20 | 51.03361 | 8.29120 | 23981 ft | 364 kts | 326° |
| 2026-05-04 19:20 | 51.05576 | 8.27155 | 23995 ft | 365 kts | 328° |
| 2026-05-04 19:20 | 51.07987 | 8.25826 | 23995 ft | 372 kts | 348° |
| 2026-05-04 19:20 | 51.10572 | 8.25464 | 24001 ft | 374 kts | 353° |
| 2026-05-04 19:21 | 51.13204 | 8.25222 | 23993 ft | 374 kts | 354° |
| 2026-05-04 19:21 | 51.15763 | 8.24996 | 23993 ft | 374 kts | 354° |
| 2026-05-04 19:21 | 51.18396 | 8.24767 | 23994 ft | 374 kts | 354° |
| 2026-05-04 19:21 | 51.20993 | 8.24545 | 23993 ft | 374 kts | 354° |
| 2026-05-04 19:22 | 51.23556 | 8.24326 | 23994 ft | 374 kts | 354° |
| 2026-05-04 19:22 | 51.26155 | 8.24102 | 23995 ft | 374 kts | 354° |
| 2026-05-04 19:22 | 51.28780 | 8.23878 | 23792 ft | 371 kts | 354° |
| 2026-05-04 19:22 | 51.31311 | 8.23663 | 23390 ft | 368 kts | 354° |
| 2026-05-04 19:23 | 51.33855 | 8.23442 | 22915 ft | 365 kts | 354° |
| 2026-05-04 19:23 | 51.36416 | 8.23217 | 22441 ft | 362 kts | 354° |
| 2026-05-04 19:23 | 51.38895 | 8.22997 | 22264 ft | 350 kts | 354° |
| 2026-05-04 19:23 | 51.41277 | 8.22793 | 22140 ft | 335 kts | 354° |
| 2026-05-04 19:24 | 51.43562 | 8.22604 | 21899 ft | 324 kts | 354° |
| 2026-05-04 19:24 | 51.45795 | 8.22419 | 21503 ft | 320 kts | 354° |
| 2026-05-04 19:24 | 51.48008 | 8.22233 | 21065 ft | 317 kts | 354° |
| 2026-05-04 19:24 | 51.50206 | 8.22046 | 20632 ft | 315 kts | 354° |
| 2026-05-04 19:25 | 51.52393 | 8.21856 | 20200 ft | 314 kts | 354° |
| 2026-05-04 19:25 | 51.54567 | 8.21647 | 19783 ft | 312 kts | 354° |
| 2026-05-04 19:25 | 51.56726 | 8.21425 | 19380 ft | 310 kts | 354° |
| 2026-05-04 19:25 | 51.58860 | 8.21051 | 18963 ft | 307 kts | 342° |
| 2026-05-04 19:26 | 51.60778 | 8.19676 | 18551 ft | 299 kts | 321° |
| 2026-05-04 19:26 | 51.62221 | 8.17348 | 18168 ft | 292 kts | 299° |
| 2026-05-04 19:26 | 51.63044 | 8.14432 | 17773 ft | 283 kts | 279° |
| 2026-05-04 19:26 | 51.63184 | 8.11369 | 17395 ft | 276 kts | 259° |
| 2026-05-04 19:27 | 51.62694 | 8.08434 | 17028 ft | 270 kts | 241° |
| 2026-05-04 19:27 | 51.61757 | 8.05845 | 16653 ft | 268 kts | 236° |
| 2026-05-04 19:27 | 51.60789 | 8.03288 | 16294 ft | 267 kts | 236° |
| 2026-05-04 19:27 | 51.59828 | 8.00735 | 15968 ft | 266 kts | 236° |
| 2026-05-04 19:28 | 51.58873 | 7.98193 | 15641 ft | 265 kts | 236° |
| 2026-05-04 19:28 | 51.57921 | 7.95656 | 15327 ft | 264 kts | 236° |
| 2026-05-04 19:28 | 51.56974 | 7.93133 | 15010 ft | 263 kts | 237° |
| 2026-05-04 19:28 | 51.56028 | 7.90619 | 14696 ft | 262 kts | 237° |
| 2026-05-04 19:29 | 51.55084 | 7.88114 | 14388 ft | 262 kts | 236° |
| 2026-05-04 19:29 | 51.54142 | 7.85622 | 14097 ft | 260 kts | 236° |
| 2026-05-04 19:29 | 51.53207 | 7.83155 | 13961 ft | 258 kts | 236° |
| 2026-05-04 19:29 | 51.52275 | 7.80699 | 13978 ft | 258 kts | 236° |
| 2026-05-04 19:30 | 51.51341 | 7.78236 | 13973 ft | 258 kts | 236° |
| 2026-05-04 19:30 | 51.50407 | 7.75777 | 13975 ft | 258 kts | 236° |
| 2026-05-04 19:30 | 51.49474 | 7.73313 | 13976 ft | 258 kts | 236° |
| 2026-05-04 19:30 | 51.48542 | 7.70853 | 13976 ft | 258 kts | 236° |
| 2026-05-04 19:31 | 51.47604 | 7.68384 | 13986 ft | 261 kts | 236° |
| 2026-05-04 19:31 | 51.46658 | 7.65894 | 13959 ft | 261 kts | 236° |
| 2026-05-04 19:31 | 51.45714 | 7.63417 | 13693 ft | 260 kts | 236° |
| 2026-05-04 19:31 | 51.44767 | 7.60950 | 13396 ft | 259 kts | 236° |
| 2026-05-04 19:32 | 51.43824 | 7.58495 | 13107 ft | 258 kts | 236° |
| 2026-05-04 19:32 | 51.42889 | 7.56051 | 12821 ft | 257 kts | 236° |
| 2026-05-04 19:32 | 51.41958 | 7.53619 | 12539 ft | 255 kts | 236° |
| 2026-05-04 19:32 | 51.41007 | 7.51226 | 12255 ft | 254 kts | 234° |
| 2026-05-04 19:33 | 51.40034 | 7.48875 | 11979 ft | 252 kts | 234° |
| 2026-05-04 19:33 | 51.39060 | 7.46547 | 11674 ft | 251 kts | 234° |
| 2026-05-04 19:33 | 51.38091 | 7.44237 | 11332 ft | 249 kts | 234° |
| 2026-05-04 19:33 | 51.37126 | 7.41938 | 10977 ft | 248 kts | 234° |
| 2026-05-04 19:34 | 51.36170 | 7.39654 | 10636 ft | 246 kts | 234° |
| 2026-05-04 19:34 | 51.35220 | 7.37381 | 10294 ft | 245 kts | 234° |
| 2026-05-04 19:34 | 51.34275 | 7.35123 | 9946 ft | 243 kts | 234° |
| 2026-05-04 19:34 | 51.33348 | 7.32904 | 9672 ft | 237 kts | 233° |
| 2026-05-04 19:35 | 51.32439 | 7.30728 | 9317 ft | 234 kts | 233° |
| 2026-05-04 19:35 | 51.31536 | 7.28578 | 8894 ft | 232 kts | 233° |
| 2026-05-04 19:35 | 51.30635 | 7.26442 | 8499 ft | 231 kts | 233° |
| 2026-05-04 19:35 | 51.29738 | 7.24320 | 8098 ft | 230 kts | 233° |
| 2026-05-04 19:36 | 51.28849 | 7.22222 | 7983 ft | 228 kts | 233° |
| 2026-05-04 19:36 | 51.27956 | 7.20111 | 7983 ft | 230 kts | 233° |
| 2026-05-04 19:36 | 51.27059 | 7.17996 | 7986 ft | 230 kts | 233° |
| 2026-05-04 19:36 | 51.26160 | 7.15877 | 8000 ft | 231 kts | 233° |
| 2026-05-04 19:37 | 51.25261 | 7.13716 | 7986 ft | 236 kts | 238° |
| 2026-05-04 19:37 | 51.24855 | 7.11179 | 7978 ft | 242 kts | 267° |
| 2026-05-04 19:37 | 51.24981 | 7.08485 | 7988 ft | 244 kts | 273° |
| 2026-05-04 19:37 | 51.25173 | 7.05798 | 7979 ft | 244 kts | 273° |
| 2026-05-04 19:38 | 51.25376 | 7.03108 | 7977 ft | 244 kts | 273° |
| 2026-05-04 19:38 | 51.25580 | 7.00425 | 7976 ft | 244 kts | 273° |
| 2026-05-04 19:38 | 51.25782 | 6.97742 | 7974 ft | 243 kts | 273° |
| 2026-05-04 19:38 | 51.25985 | 6.95060 | 7985 ft | 244 kts | 273° |
| 2026-05-04 19:39 | 51.26202 | 6.92376 | 7976 ft | 245 kts | 276° |
| 2026-05-04 19:39 | 51.26897 | 6.89890 | 7970 ft | 252 kts | 307° |
| 2026-05-04 19:39 | 51.28240 | 6.88064 | 7975 ft | 256 kts | 322° |
| 2026-05-04 19:39 | 51.29709 | 6.86455 | 7973 ft | 256 kts | 323° |
| 2026-05-04 19:40 | 51.31189 | 6.84868 | 7976 ft | 256 kts | 323° |
| 2026-05-04 19:40 | 51.32672 | 6.83284 | 7972 ft | 256 kts | 323° |
| 2026-05-04 19:40 | 51.34156 | 6.81700 | 7972 ft | 256 kts | 323° |
| 2026-05-04 19:40 | 51.35638 | 6.80122 | 7799 ft | 255 kts | 323° |
| 2026-05-04 19:41 | 51.37110 | 6.78553 | 7432 ft | 254 kts | 323° |
| 2026-05-04 19:41 | 51.38722 | 6.77430 | 7096 ft | 255 kts | 351° |
| 2026-05-04 19:41 | 51.40456 | 6.77743 | 6966 ft | 254 kts | 23° |
| 2026-05-04 19:41 | 51.41863 | 6.79405 | 6983 ft | 254 kts | 49° |
| 2026-05-04 19:42 | 51.43001 | 6.81563 | 6856 ft | 253 kts | 53° |
| 2026-05-04 19:42 | 51.44096 | 6.83758 | 6506 ft | 252 kts | 53° |
| 2026-05-04 19:42 | 51.45181 | 6.85954 | 6149 ft | 251 kts | 53° |
| 2026-05-04 19:42 | 51.46259 | 6.88150 | 5792 ft | 250 kts | 53° |
| 2026-05-04 19:43 | 51.47326 | 6.90336 | 5441 ft | 249 kts | 53° |
| 2026-05-04 19:43 | 51.48385 | 6.92520 | 5095 ft | 247 kts | 53° |
| 2026-05-04 19:43 | 51.49431 | 6.94685 | 5005 ft | 246 kts | 53° |
| 2026-05-04 19:43 | 51.50479 | 6.96863 | 5011 ft | 247 kts | 53° |
| 2026-05-04 19:44 | 51.51530 | 6.99054 | 5010 ft | 248 kts | 53° |
| 2026-05-04 19:44 | 51.52580 | 7.01242 | 5008 ft | 247 kts | 53° |
| 2026-05-04 19:44 | 51.53632 | 7.03430 | 5009 ft | 248 kts | 53° |
| 2026-05-04 19:44 | 51.54684 | 7.05617 | 5009 ft | 247 kts | 53° |
| 2026-05-04 19:45 | 51.55737 | 7.07806 | 5008 ft | 247 kts | 53° |
| 2026-05-04 19:45 | 51.56789 | 7.09995 | 5009 ft | 248 kts | 53° |
| 2026-05-04 19:45 | 51.57842 | 7.12184 | 5008 ft | 247 kts | 53° |
| 2026-05-04 19:45 | 51.58715 | 7.14539 | 5004 ft | 245 kts | 76° |
| 2026-05-04 19:46 | 51.58768 | 7.17209 | 5007 ft | 239 kts | 108° |
| 2026-05-04 19:46 | 51.57981 | 7.19477 | 4835 ft | 231 kts | 136° |
| 2026-05-04 19:46 | 51.57210 | 7.20645 | 4571 ft | 230 kts | 142° |
| 2026-05-04 19:46 | 51.55448 | 7.22488 | 4070 ft | 225 kts | 168° |
| 2026-05-04 19:47 | 51.54429 | 7.22594 | 3833 ft | 222 kts | 189° |
| 2026-05-04 19:47 | 51.52956 | 7.21855 | 3476 ft | 222 kts | 202° |
| 2026-05-04 19:47 | 51.51527 | 7.20894 | 3119 ft | 223 kts | 203° |
| 2026-05-04 19:47 | 51.50115 | 7.19902 | 3007 ft | 222 kts | 205° |
| 2026-05-04 19:48 | 51.48595 | 7.17723 | 3022 ft | 226 kts | 232° |
| 2026-05-04 19:48 | 51.47659 | 7.15706 | 3020 ft | 226 kts | 233° |
| 2026-05-04 19:48 | 51.46722 | 7.13690 | 3019 ft | 225 kts | 232° |
| 2026-05-04 19:48 | 51.45780 | 7.11681 | 3019 ft | 225 kts | 232° |
| 2026-05-04 19:49 | 51.45144 | 7.10326 | 3014 ft | 224 kts | 232° |
| 2026-05-04 19:49 | 51.44223 | 7.08368 | 3013 ft | 217 kts | 232° |
| 2026-05-04 19:49 | 51.43347 | 7.06504 | 3004 ft | 203 kts | 232° |
| 2026-05-04 19:49 | 51.42505 | 7.04716 | 3015 ft | 197 kts | 231° |
| 2026-05-04 19:50 | 51.41703 | 7.03014 | 3008 ft | 188 kts | 231° |
| 2026-05-04 19:50 | 51.40922 | 7.01359 | 3013 ft | 185 kts | 231° |
| 2026-05-04 19:50 | 51.40149 | 6.99721 | 3013 ft | 184 kts | 231° |
| 2026-05-04 19:50 | 51.39378 | 6.98088 | 3016 ft | 184 kts | 231° |
| 2026-05-04 19:51 | 51.38603 | 6.96446 | 2965 ft | 186 kts | 231° |
| 2026-05-04 19:51 | 51.37835 | 6.94821 | 2782 ft | 185 kts | 231° |
| 2026-05-04 19:51 | 51.37057 | 6.93175 | 2554 ft | 186 kts | 231° |
| 2026-05-04 19:51 | 51.36272 | 6.91518 | 2338 ft | 183 kts | 232° |
| 2026-05-04 19:52 | 51.35510 | 6.89907 | 2069 ft | 180 kts | 231° |
| 2026-05-04 19:52 | 51.34760 | 6.88324 | 1816 ft | 175 kts | 231° |
| 2026-05-04 19:52 | 51.34043 | 6.86810 | 1587 ft | 166 kts | 230° |
| 2026-05-04 19:52 | 51.33381 | 6.85412 | 1379 ft | 147 kts | 229° |
| 2026-05-04 19:53 | 51.32797 | 6.84180 | 1178 ft | 132 kts | 230° |
| 2026-05-04 19:53 | 51.32252 | 6.83035 | 1007 ft | 127 kts | 230° |
| 2026-05-04 19:53 | 51.31727 | 6.81930 | 832 ft | 127 kts | 231° |
| 2026-05-04 19:53 | 51.31198 | 6.80819 | 672 ft | 125 kts | 230° |
| 2026-05-04 19:54 | 51.30676 | 6.79720 | 516 ft | 125 kts | 230° |
| 2026-05-04 19:54 | 51.30155 | 6.78628 | 346 ft | 122 kts | 229° |
| 2026-05-04 19:54 | 51.29646 | 6.77543 | 181 ft | 121 kts | 231° |
| 2026-05-04 19:54 | 51.29156 | 6.76526 | 128 ft | 103 kts | 232° |
| 2026-05-04 19:55 | 51.28856 | 6.75896 | 126 ft | 33 kts | 233° |
| 2026-05-04 19:55 | 51.28703 | 6.75707 | 121 ft | 22 kts | 204° |
| 2026-05-04 19:55 | 51.28579 | 6.75685 | 125 ft | 14 kts | 169° |
| 2026-05-04 19:55 | 51.28547 | 6.75698 | 121 ft | 0 kts | 164° |
| 2026-05-04 19:56 | 51.28546 | 6.75699 | 121 ft | 1 kts | 164° |
| 2026-05-04 19:56 | 51.28531 | 6.75707 | 124 ft | 4 kts | 159° |
| 2026-05-04 19:56 | 51.28527 | 6.75710 | 122 ft | 0 kts | 156° |
| 2026-05-04 19:57 | 51.28519 | 6.75715 | 120 ft | 4 kts | 157° |
| 2026-05-04 19:57 | 51.28481 | 6.75753 | 121 ft | 6 kts | 144° |
| 2026-05-04 19:57 | 51.28452 | 6.75789 | 123 ft | 5 kts | 142° |
| 2026-05-04 19:58 | 51.28431 | 6.75815 | 124 ft | 4 kts | 142° |
| 2026-05-04 19:58 | 51.28406 | 6.75846 | 124 ft | 0 kts | 142° |
| 2026-05-04 20:03 | 51.28405 | 6.75847 | 123 ft | 1 kts | 142° |
| 2026-05-04 20:03 | 51.28368 | 6.75892 | 121 ft | 13 kts | 142° |
| 2026-05-04 20:03 | 51.28295 | 6.75980 | 124 ft | 12 kts | 145° |
| 2026-05-04 20:04 | 51.28226 | 6.76052 | 124 ft | 11 kts | 146° |
| 2026-05-04 20:04 | 51.28187 | 6.76093 | 125 ft | 0 kts | 147° |
| 2026-05-04 20:05 | 51.28178 | 6.76080 | 125 ft | 4 kts | 241° |